Time;durP1;ratioP1;P1;durP2;ratioP2;P2;SDS_P1;SDS_P2;PMS_P1;PMS_P2;Temp;Humidity;BMP_temperature;BMP_pressure;BME280_temperature;BME280_humidity;BME280_pressure;Samples;Min_cycle;Max_cycle;Signal;HPM_P1;HPM_P2
2022/07/01 00:00:25;;;;;;;10.85;7.65;;;24.70;99.90;;;;;;5019085;28;20230;-74
2022/07/01 00:03:14;;;;;;;13.45;7.38;;;24.60;99.90;;;;;;5016750;28;20296;-73
2022/07/01 00:06:04;;;;;;;13.38;8.15;;;24.60;99.90;;;;;;5021859;28;20222;-74
2022/07/01 00:08:53;;;;;;;10.48;8.25;;;24.60;99.90;;;;;;5006276;28;20221;-73
2022/07/01 00:11:41;;;;;;;13.55;7.97;;;24.50;99.90;;;;;;5008999;28;20679;-73
2022/07/01 00:14:30;;;;;;;12.70;7.93;;;24.50;99.90;;;;;;5022585;28;20221;-74
2022/07/01 00:17:18;;;;;;;10.93;7.68;;;24.60;99.90;;;;;;5021419;28;20229;-72
2022/07/01 00:20:08;;;;;;;13.23;8.27;;;24.60;99.90;;;;;;5026865;28;20734;-74
2022/07/01 00:22:58;;;;;;;13.38;8.38;;;24.50;99.90;;;;;;5016719;28;20226;-73
2022/07/01 00:25:47;;;;;;;13.38;7.47;;;24.40;99.90;;;;;;5004402;28;20242;-75
2022/07/01 00:28:36;;;;;;;13.15;8.30;;;24.40;99.90;;;;;;5022460;28;20222;-75
2022/07/01 00:31:25;;;;;;;10.55;7.93;;;24.40;99.90;;;;;;5020722;28;20229;-74
2022/07/01 00:34:13;;;;;;;10.85;8.32;;;24.40;99.90;;;;;;5019774;28;20209;-74
2022/07/01 00:37:02;;;;;;;11.38;8.18;;;24.40;99.90;;;;;;5016877;28;20249;-75
2022/07/01 00:39:55;;;;;;;13.65;7.97;;;24.40;99.90;;;;;;5001925;28;20226;-74
2022/07/01 00:42:44;;;;;;;13.35;8.38;;;24.40;99.90;;;;;;5003335;28;20570;-72
2022/07/01 00:45:32;;;;;;;14.02;9.02;;;24.40;99.90;;;;;;5017766;28;20217;-73
2022/07/01 00:48:23;;;;;;;14.85;8.63;;;24.30;99.90;;;;;;5017852;28;20629;-72
2022/07/01 00:51:15;;;;;;;9.80;8.32;;;24.30;99.90;;;;;;5023008;28;20230;-73
2022/07/01 00:54:04;;;;;;;10.18;8.48;;;24.20;99.90;;;;;;5024396;28;20232;-73
2022/07/01 00:56:54;;;;;;;14.52;8.63;;;24.20;99.90;;;;;;5022545;28;20225;-73
2022/07/01 00:59:42;;;;;;;10.73;8.93;;;24.30;99.90;;;;;;5018613;28;20226;-73
2022/07/01 01:02:31;;;;;;;14.02;9.32;;;24.30;99.90;;;;;;5018015;28;20243;-72
2022/07/01 01:05:20;;;;;;;15.15;9.15;;;24.20;99.90;;;;;;5005367;28;20225;-72
2022/07/01 01:08:10;;;;;;;11.55;8.75;;;24.20;99.90;;;;;;5025995;28;20287;-73
2022/07/01 01:10:59;;;;;;;13.98;9.20;;;24.20;99.90;;;;;;5021886;28;20217;-72
2022/07/01 01:13:49;;;;;;;13.10;9.07;;;24.20;99.90;;;;;;5005325;28;20707;-73
2022/07/01 01:16:38;;;;;;;10.98;8.57;;;24.20;99.90;;;;;;5005017;28;20234;-72
2022/07/01 01:19:31;;;;;;;13.02;9.23;;;24.20;99.90;;;;;;5008555;28;20715;-72
2022/07/01 01:22:24;;;;;;;10.20;8.95;;;24.20;99.90;;;;;;5014431;28;20229;-71
2022/07/01 01:25:13;;;;;;;16.05;9.75;;;24.20;99.90;;;;;;5022600;28;20244;-72
2022/07/01 01:28:03;;;;;;;9.93;8.82;;;24.20;99.90;;;;;;5022154;28;20221;-72
2022/07/01 01:30:52;;;;;;;10.10;9.10;;;24.20;99.90;;;;;;5023364;28;21312;-74
2022/07/01 01:33:41;;;;;;;14.75;9.63;;;24.20;99.90;;;;;;5017632;28;20412;-75
2022/07/01 01:36:29;;;;;;;12.38;8.48;;;24.20;99.90;;;;;;5021237;28;20221;-77
2022/07/01 01:39:20;;;;;;;13.10;10.05;;;24.20;99.90;;;;;;5008932;28;20238;-76
2022/07/01 01:42:09;;;;;;;16.63;10.00;;;24.20;99.90;;;;;;5025187;28;20708;-77
2022/07/01 01:44:57;;;;;;;14.30;10.00;;;24.20;99.90;;;;;;5008501;28;20233;-77
2022/07/01 01:47:46;;;;;;;13.20;10.35;;;24.20;99.90;;;;;;5033605;28;20328;-75
2022/07/01 01:50:35;;;;;;;21.02;10.32;;;24.20;99.90;;;;;;5012949;28;20305;-77
2022/07/01 01:53:24;;;;;;;11.38;10.00;;;24.20;99.90;;;;;;5022120;28;20233;-76
2022/07/01 01:56:13;;;;;;;12.10;10.15;;;24.20;99.90;;;;;;5026703;28;20221;-76
2022/07/01 01:59:04;;;;;;;12.48;9.90;;;24.30;99.90;;;;;;5022767;28;20232;-77
2022/07/01 02:01:53;;;;;;;12.68;9.35;;;24.20;99.90;;;;;;5018815;28;20696;-76
2022/07/01 02:04:41;;;;;;;11.80;10.10;;;24.20;99.90;;;;;;5016783;28;20237;-75
2022/07/01 02:07:30;;;;;;;15.52;9.55;;;24.10;99.90;;;;;;5026786;28;20241;-75
2022/07/01 02:10:19;;;;;;;12.15;9.77;;;24.20;99.90;;;;;;5009761;28;20237;-73
2022/07/01 02:13:09;;;;;;;13.07;9.52;;;24.20;99.90;;;;;;5020379;28;20576;-77
2022/07/01 02:15:57;;;;;;;10.48;9.48;;;24.20;99.90;;;;;;5018865;28;20226;-74
2022/07/01 02:18:46;;;;;;;12.52;10.02;;;24.20;99.90;;;;;;5022318;28;20340;-75
2022/07/01 02:21:35;;;;;;;11.15;9.95;;;24.20;99.90;;;;;;5008952;28;20727;-76
2022/07/01 02:24:23;;;;;;;15.80;10.27;;;24.10;99.90;;;;;;5024955;28;20253;-76
2022/07/01 02:27:12;;;;;;;14.32;10.50;;;24.10;99.90;;;;;;5013581;28;20254;-76
2022/07/01 02:30:02;;;;;;;16.38;10.07;;;24.20;99.90;;;;;;5023371;28;20233;-77
2022/07/01 02:32:51;;;;;;;12.35;9.95;;;24.20;99.90;;;;;;5022519;28;20236;-78
2022/07/01 02:35:41;;;;;;;13.52;10.63;;;24.20;99.90;;;;;;5023240;28;20362;-76
2022/07/01 02:38:36;;;;;;;12.90;9.88;;;24.20;99.90;;;;;;5022360;28;20364;-78
2022/07/01 02:41:24;;;;;;;13.60;10.80;;;24.20;99.90;;;;;;5011541;28;20214;-77
2022/07/01 02:44:13;;;;;;;12.70;10.63;;;24.20;99.90;;;;;;5024514;28;20741;-76
2022/07/01 02:47:03;;;;;;;13.32;10.43;;;24.20;99.90;;;;;;5020138;28;20237;-75
2022/07/01 02:49:56;;;;;;;12.98;10.95;;;24.20;99.90;;;;;;5009875;28;20234;-77
2022/07/01 02:52:45;;;;;;;13.07;10.75;;;24.20;99.90;;;;;;5015215;28;20229;-76
2022/07/01 02:55:34;;;;;;;12.75;10.07;;;24.20;99.90;;;;;;5016629;28;20222;-75
2022/07/01 02:58:22;;;;;;;12.85;9.88;;;24.20;99.90;;;;;;5008311;28;20237;-75
2022/07/01 03:01:11;;;;;;;14.95;10.93;;;24.20;99.90;;;;;;5017527;28;20240;-71
2022/07/01 03:04:01;;;;;;;19.52;10.45;;;24.20;99.90;;;;;;5024119;28;20221;-70
2022/07/01 03:06:49;;;;;;;13.10;8.43;;;24.20;99.90;;;;;;5021806;28;20419;-70
2022/07/01 03:09:39;;;;;;;13.77;9.13;;;24.20;99.90;;;;;;5017128;28;20241;-71
2022/07/01 03:12:34;;;;;;;12.38;9.13;;;24.30;99.90;;;;;;5014427;28;20378;-70
2022/07/01 03:15:23;;;;;;;9.02;8.07;;;24.30;99.90;;;;;;5023887;28;20719;-71
2022/07/01 03:18:12;;;;;;;16.17;8.93;;;24.40;99.90;;;;;;5019460;28;20229;-72
2022/07/01 03:21:02;;;;;;;15.93;9.73;;;24.30;99.90;;;;;;5021301;28;20737;-72
2022/07/01 03:23:51;;;;;;;11.98;9.55;;;24.20;99.90;;;;;;5019205;28;20715;-74
2022/07/01 03:26:42;;;;;;;11.48;9.32;;;24.20;99.90;;;;;;5020973;28;20222;-72
2022/07/01 03:29:30;;;;;;;11.75;9.20;;;24.30;99.90;;;;;;5016986;28;20344;-72
2022/07/01 03:32:19;;;;;;;12.07;9.43;;;24.30;99.90;;;;;;5021894;28;20214;-73
2022/07/01 03:38:13;;;;;;;15.20;9.73;;;24.50;99.90;;;;;;5006214;28;20847;-74
2022/07/01 03:41:02;;;;;;;12.63;10.23;;;24.50;99.90;;;;;;5020713;28;20225;-73
2022/07/01 03:43:50;;;;;;;18.80;10.90;;;24.50;99.90;;;;;;5016065;28;20237;-73
2022/07/01 03:46:39;;;;;;;12.70;10.07;;;24.60;99.90;;;;;;5009965;28;20261;-73
2022/07/01 03:49:28;;;;;;;15.15;10.20;;;24.60;99.90;;;;;;4987505;28;20237;-74
2022/07/01 03:52:16;;;;;;;17.05;11.50;;;24.60;99.90;;;;;;5021269;28;20904;-74
2022/07/01 03:55:06;;;;;;;13.63;10.38;;;24.60;99.90;;;;;;5014831;28;20884;-73
2022/07/01 03:57:58;;;;;;;15.02;11.02;;;24.60;99.90;;;;;;5015243;28;20234;-72
2022/07/01 04:00:47;;;;;;;14.68;10.98;;;24.70;99.90;;;;;;5017008;28;20229;-73
2022/07/01 04:03:39;;;;;;;16.00;11.32;;;24.70;99.90;;;;;;5005192;28;20676;-73
2022/07/01 04:06:32;;;;;;;15.40;11.77;;;24.70;99.90;;;;;;5012217;28;20222;-73
2022/07/01 04:09:24;;;;;;;12.68;10.95;;;24.70;99.90;;;;;;5017875;28;20312;-73
2022/07/01 04:12:14;;;;;;;16.48;11.65;;;24.70;99.90;;;;;;5012650;28;20304;-72
2022/07/01 04:15:03;;;;;;;16.50;11.95;;;24.70;99.90;;;;;;5017964;28;20213;-72
2022/07/01 04:17:51;;;;;;;13.75;11.80;;;24.80;99.90;;;;;;5013880;28;20229;-74
2022/07/01 04:20:40;;;;;;;15.15;11.75;;;24.90;99.90;;;;;;5007218;28;20233;-73
2022/07/01 04:23:28;;;;;;;13.90;11.55;;;25.00;99.90;;;;;;5022257;28;20348;-74
2022/07/01 04:26:17;;;;;;;15.02;13.18;;;25.00;99.90;;;;;;5016730;28;20241;-73
2022/07/01 04:29:27;;;;;;;16.83;12.23;;;25.00;99.90;;;;;;5001603;28;21003;-73
2022/07/01 04:32:15;;;;;;;16.92;12.75;;;25.00;99.90;;;;;;5022240;28;20256;-74
2022/07/01 04:35:05;;;;;;;20.20;13.77;;;25.00;99.90;;;;;;5013310;28;20218;-74
2022/07/01 04:37:57;;;;;;;17.45;13.38;;;25.20;99.90;;;;;;5015078;28;20728;-75
2022/07/01 04:43:48;;;;;;;15.48;13.98;;;25.30;99.90;;;;;;5020337;28;20258;-75
2022/07/01 04:46:45;;;;;;;19.45;13.50;;;25.40;99.90;;;;;;5005267;28;20239;-74
2022/07/01 04:49:34;;;;;;;18.38;13.25;;;25.40;99.90;;;;;;5006439;28;20231;-73
2022/07/01 04:52:23;;;;;;;14.45;12.95;;;25.30;99.90;;;;;;5017739;28;20221;-73
2022/07/01 04:55:12;;;;;;;21.40;13.82;;;25.30;99.90;;;;;;5018235;28;20230;-73
2022/07/01 04:58:00;;;;;;;17.70;14.73;;;25.30;99.90;;;;;;5006136;28;20226;-72
2022/07/01 05:00:49;;;;;;;17.88;14.30;;;25.40;99.90;;;;;;5016044;28;20253;-73
2022/07/01 05:03:39;;;;;;;16.02;14.25;;;25.50;99.90;;;;;;5008515;28;20217;-73
2022/07/01 05:06:28;;;;;;;17.10;13.95;;;25.60;99.90;;;;;;5014419;28;20305;-73
2022/07/01 05:09:17;;;;;;;15.80;13.75;;;25.70;99.90;;;;;;5019500;28;20215;-73
2022/07/01 05:12:08;;;;;;;16.05;14.48;;;25.70;99.90;;;;;;5000196;28;20225;-73
2022/07/01 05:14:57;;;;;;;17.63;14.98;;;25.90;99.90;;;;;;5018894;28;20301;-72
2022/07/01 05:24:05;;;;;;;15.32;13.82;;;25.90;99.90;;;;;;4961832;28;20241;-73
2022/07/01 05:26:54;;;;;;;18.73;15.30;;;26.00;99.90;;;;;;5016041;28;20548;-74
2022/07/01 05:29:43;;;;;;;18.88;14.02;;;26.20;99.90;;;;;;5004818;28;20241;-73
2022/07/01 05:32:31;;;;;;;16.27;14.52;;;26.30;99.90;;;;;;5012414;28;20222;-75
2022/07/01 05:35:20;;;;;;;17.42;15.48;;;26.40;99.90;;;;;;5020034;28;20225;-73
2022/07/01 05:38:10;;;;;;;16.40;14.65;;;26.40;99.90;;;;;;5018977;28;20234;-74
2022/07/01 05:40:58;;;;;;;16.05;14.55;;;26.50;99.90;;;;;;5021905;28;20213;-74
2022/07/01 05:43:47;;;;;;;18.80;14.55;;;26.60;99.90;;;;;;5023054;28;20249;-74
2022/07/01 05:46:36;;;;;;;17.30;13.73;;;26.60;99.90;;;;;;5014402;28;20251;-73
2022/07/01 05:49:25;;;;;;;17.17;15.50;;;26.70;99.90;;;;;;5007177;28;20233;-73
2022/07/01 05:52:13;;;;;;;15.57;14.18;;;26.80;99.90;;;;;;5006730;28;20233;-71
2022/07/01 05:55:03;;;;;;;15.90;14.30;;;26.80;99.90;;;;;;5021097;28;20703;-73
2022/07/01 05:57:52;;;;;;;16.40;14.52;;;26.80;99.90;;;;;;5009717;28;20237;-75
2022/07/01 06:00:42;;;;;;;17.30;14.55;;;26.90;99.90;;;;;;5016439;28;20220;-73
2022/07/01 06:03:30;;;;;;;17.48;14.00;;;27.00;99.90;;;;;;5009236;28;20229;-75
2022/07/01 06:06:19;;;;;;;17.23;14.93;;;26.90;99.90;;;;;;5010849;28;20305;-73
2022/07/01 06:09:08;;;;;;;17.15;14.30;;;26.90;99.90;;;;;;5003701;28;20273;-74
2022/07/01 06:11:58;;;;;;;15.30;13.85;;;27.10;99.90;;;;;;5016905;28;20646;-72
2022/07/01 06:14:46;;;;;;;18.00;14.20;;;27.20;99.90;;;;;;5017787;28;20222;-72
2022/07/01 06:17:35;;;;;;;19.75;13.68;;;27.40;99.90;;;;;;5023015;28;20561;-75
2022/07/01 06:20:27;;;;;;;18.80;14.57;;;27.70;99.90;;;;;;5011973;28;20218;-70
2022/07/01 06:23:15;;;;;;;15.48;13.98;;;27.80;99.90;;;;;;5021356;28;20240;-72
2022/07/01 06:26:04;;;;;;;15.45;14.02;;;27.80;99.90;;;;;;5019889;28;20608;-70
2022/07/01 06:28:54;;;;;;;15.93;13.90;;;28.40;99.90;;;;;;5015508;28;20233;-69
2022/07/01 06:31:42;;;;;;;15.88;14.18;;;29.20;99.90;;;;;;5017931;28;20232;-70
2022/07/01 06:34:31;;;;;;;17.45;14.15;;;29.40;99.90;;;;;;4999375;28;20259;-72
2022/07/01 06:37:21;;;;;;;18.02;14.00;;;29.30;99.90;;;;;;5017414;28;20279;-74
2022/07/01 06:40:11;;;;;;;15.23;13.60;;;29.40;99.90;;;;;;5008154;28;20761;-70
2022/07/01 06:42:59;;;;;;;17.20;14.23;;;30.50;99.90;;;;;;5016663;28;20707;-71
2022/07/01 06:45:52;;;;;;;16.52;13.52;;;31.30;99.90;;;;;;5017831;28;20282;-72
2022/07/01 06:48:41;;;;;;;15.43;12.93;;;31.20;99.90;;;;;;5034489;28;20719;-72
2022/07/01 06:51:29;;;;;;;18.38;13.50;;;30.70;99.90;;;;;;5004999;28;20229;-73
2022/07/01 06:54:18;;;;;;;15.80;13.50;;;30.60;99.90;;;;;;5019325;28;20213;-72
2022/07/01 06:57:07;;;;;;;19.60;13.95;;;30.40;99.90;;;;;;5005129;28;20221;-71
2022/07/01 06:59:56;;;;;;;15.07;13.48;;;30.20;99.90;;;;;;5008460;28;21553;-73
2022/07/01 07:02:46;;;;;;;17.25;13.75;;;30.00;99.90;;;;;;5024325;28;20225;-74
2022/07/01 07:05:35;;;;;;;20.00;14.95;;;29.90;99.90;;;;;;5019799;28;20236;-71
2022/07/01 07:08:24;;;;;;;19.20;14.10;;;30.10;99.90;;;;;;5014610;28;20569;-71
2022/07/01 07:11:14;;;;;;;19.02;13.77;;;30.20;99.90;;;;;;5017201;28;20217;-71
2022/07/01 07:14:06;;;;;;;17.92;13.95;;;31.10;99.90;;;;;;5012199;28;20252;-76
2022/07/01 07:16:55;;;;;;;17.60;14.10;;;31.90;99.90;;;;;;5013137;28;20290;-78
2022/07/01 07:19:45;;;;;;;20.00;14.05;;;31.30;99.90;;;;;;5013383;28;20640;-77
2022/07/01 07:22:33;;;;;;;16.20;14.40;;;31.20;99.90;;;;;;5021031;28;20223;-78
2022/07/01 07:25:22;;;;;;;17.65;13.63;;;31.20;99.90;;;;;;5012448;28;20295;-78
2022/07/01 07:28:11;;;;;;;18.45;13.68;;;31.30;99.90;;;;;;5012513;28;20664;-75
2022/07/01 07:31:00;;;;;;;14.70;12.75;;;31.30;99.90;;;;;;5013443;28;20224;-76
2022/07/01 07:33:48;;;;;;;20.25;13.85;;;31.40;99.90;;;;;;5014973;28;20225;-78
2022/07/01 07:36:38;;;;;;;18.77;13.93;;;31.60;99.90;;;;;;5010759;28;20219;-79
2022/07/01 07:39:27;;;;;;;19.77;13.90;;;31.90;99.90;;;;;;5016744;28;20229;-78
2022/07/01 07:42:20;;;;;;;14.18;12.57;;;32.30;99.90;;;;;;5006365;28;20535;-77
2022/07/01 07:45:11;;;;;;;14.90;13.40;;;32.50;99.90;;;;;;5017558;28;20229;-78
2022/07/01 07:48:06;;;;;;;18.02;13.00;;;32.90;99.90;;;;;;5014397;28;20308;-79
2022/07/01 07:50:58;;;;;;;18.63;13.30;;;33.50;98.90;;;;;;5008862;28;20280;-78
2022/07/01 07:53:48;;;;;;;14.85;11.68;;;33.60;98.70;;;;;;5006372;28;20220;-79
2022/07/01 07:56:37;;;;;;;13.40;11.68;;;33.90;96.10;;;;;;5014942;28;20222;-71
2022/07/01 07:59:32;;;;;;;15.27;11.77;;;34.10;94.50;;;;;;5012695;28;20222;-70
2022/07/01 08:02:21;;;;;;;17.92;10.85;;;34.30;93.70;;;;;;5016014;28;20378;-70
2022/07/01 08:05:12;;;;;;;12.13;10.43;;;34.60;91.90;;;;;;4998508;28;20225;-71
2022/07/01 08:08:05;;;;;;;19.80;11.63;;;34.70;90.10;;;;;;5020346;28;20268;-72
2022/07/01 08:10:55;;;;;;;16.65;11.00;;;34.80;89.30;;;;;;5017180;28;20305;-72
2022/07/01 08:13:44;;;;;;;12.85;11.02;;;35.00;88.60;;;;;;5012615;28;20236;-72
2022/07/01 08:16:58;;;;;;;13.40;10.10;;;35.30;87.70;;;;;;5017301;28;20213;-72
2022/07/01 08:19:47;;;;;;;13.05;9.73;;;35.50;84.50;;;;;;5017583;28;20225;-74
2022/07/01 08:22:35;;;;;;;12.77;9.68;;;35.60;86.50;;;;;;5000120;28;20243;-73
2022/07/01 08:25:24;;;;;;;13.82;9.63;;;35.80;84.10;;;;;;5016498;28;20893;-72
2022/07/01 08:28:14;;;;;;;13.00;10.00;;;36.20;83.20;;;;;;5005481;28;20216;-72
2022/07/01 08:31:03;;;;;;;11.50;9.75;;;36.20;80.50;;;;;;5018444;28;20997;-72
2022/07/01 08:33:52;;;;;;;14.00;9.63;;;36.40;81.00;;;;;;4998314;28;20221;-73
2022/07/01 08:36:41;;;;;;;12.13;8.90;;;36.80;81.20;;;;;;5008737;28;20782;-73
2022/07/01 08:39:30;;;;;;;11.10;8.48;;;37.10;77.60;;;;;;4999623;28;20877;-72
2022/07/01 08:42:18;;;;;;;10.80;8.55;;;37.10;74.70;;;;;;5019381;28;20376;-72
2022/07/01 08:45:10;;;;;;;9.27;8.13;;;37.50;73.00;;;;;;5019311;28;20836;-70
2022/07/01 08:48:01;;;;;;;9.77;8.05;;;37.40;69.10;;;;;;5003173;28;20702;-70
2022/07/01 08:50:50;;;;;;;10.20;8.88;;;37.60;70.80;;;;;;5013477;28;20221;-70
2022/07/01 08:53:39;;;;;;;10.75;8.68;;;37.60;72.40;;;;;;5005946;28;20228;-73
2022/07/01 08:59:33;;;;;;;9.18;8.18;;;38.10;69.50;;;;;;5012141;28;20217;-73
2022/07/01 09:02:24;;;;;;;13.52;8.10;;;38.60;67.50;;;;;;5013699;28;20248;-75
2022/07/01 09:05:12;;;;;;;8.65;7.85;;;38.80;63.50;;;;;;5009257;28;20244;-72
2022/07/01 09:08:04;;;;;;;8.82;7.80;;;38.70;62.30;;;;;;4994515;28;20236;-72
2022/07/01 09:10:53;;;;;;;8.70;7.57;;;39.00;61.40;;;;;;5022437;28;20236;-74
2022/07/01 09:13:41;;;;;;;9.30;7.72;;;39.70;59.60;;;;;;4998838;28;20230;-74
2022/07/01 09:16:40;;;;;;;7.85;7.15;;;39.70;58.30;;;;;;5005873;28;20336;-73
2022/07/01 09:19:33;;;;;;;8.25;7.55;;;40.00;58.30;;;;;;5016801;28;20217;-74
2022/07/01 09:22:22;;;;;;;11.70;7.18;;;40.30;56.90;;;;;;4997679;28;20706;-72
2022/07/01 09:25:14;;;;;;;10.95;7.75;;;40.90;56.10;;;;;;5020249;28;20228;-72
2022/07/01 09:28:05;;;;;;;9.38;7.00;;;41.90;53.70;;;;;;5019973;28;20225;-73
2022/07/01 09:30:55;;;;;;;8.45;6.90;;;41.50;53.00;;;;;;5003693;28;20964;-74
2022/07/01 09:33:43;;;;;;;11.15;7.05;;;42.10;52.20;;;;;;5021491;28;20240;-73
2022/07/01 09:36:33;;;;;;;7.18;6.57;;;41.90;53.20;;;;;;5015515;28;20221;-72
2022/07/01 09:39:22;;;;;;;8.10;7.30;;;41.50;53.00;;;;;;5011312;28;20228;-72
2022/07/01 09:42:26;;;;;;;9.02;6.97;;;41.60;53.30;;;;;;5018657;28;20232;-72
2022/07/01 09:45:15;;;;;;;8.20;6.78;;;41.90;52.50;;;;;;5012802;28;20280;-70
2022/07/01 09:48:04;;;;;;;9.90;6.97;;;42.20;51.20;;;;;;5007381;28;20232;-73
2022/07/01 09:50:53;;;;;;;10.40;7.15;;;42.20;50.30;;;;;;5026211;28;20229;-83
2022/07/01 09:53:43;;;;;;;9.00;6.90;;;43.30;50.10;;;;;;5020336;28;20221;-71
2022/07/01 09:56:32;;;;;;;7.95;7.10;;;43.50;48.90;;;;;;5025912;28;20221;-70
2022/07/01 09:59:20;;;;;;;9.93;7.25;;;43.70;50.30;;;;;;5010871;28;20392;-70
2022/07/01 10:02:10;;;;;;;7.55;6.47;;;44.40;51.10;;;;;;5021478;28;20240;-71
2022/07/01 10:05:03;;;;;;;7.28;6.63;;;44.70;48.10;;;;;;5020616;28;20225;-76
2022/07/01 10:08:01;;;;;;;8.48;6.10;;;44.30;47.70;;;;;;5016345;28;20232;-82
2022/07/01 10:11:02;;;;;;;7.72;6.18;;;45.00;46.20;;;;;;5016515;28;20231;-72
2022/07/01 10:13:52;;;;;;;10.10;6.90;;;45.70;46.30;;;;;;5013924;28;20236;-69
2022/07/01 10:16:41;;;;;;;8.20;5.95;;;46.90;45.90;;;;;;5008350;28;20232;-68
2022/07/01 10:19:33;;;;;;;6.32;5.68;;;47.00;44.70;;;;;;5016447;28;20228;-71
2022/07/01 10:22:26;;;;;;;7.45;6.00;;;47.00;44.00;;;;;;5007119;28;20228;-71
2022/07/01 10:25:39;;;;;;;7.05;6.05;;;46.30;43.80;;;;;;5014105;28;20241;-68
2022/07/01 10:28:41;;;;;;;6.72;5.50;;;46.70;46.00;;;;;;5013404;28;20591;-71
2022/07/01 10:31:37;;;;;;;6.35;5.53;;;46.60;44.90;;;;;;5006890;28;20572;-73
2022/07/01 10:34:40;;;;;;;9.70;5.80;;;46.10;43.70;;;;;;5027951;28;20248;-71
2022/07/01 10:37:30;;;;;;;6.15;5.43;;;45.70;42.80;;;;;;5019276;28;20224;-77
2022/07/01 10:40:18;;;;;;;8.82;5.90;;;46.40;44.30;;;;;;5020697;28;20221;-75
2022/07/01 10:43:07;;;;;;;8.65;5.97;;;47.20;42.00;;;;;;5017801;28;20711;-75
2022/07/01 10:46:05;;;;;;;7.47;5.30;;;47.30;41.90;;;;;;5022635;28;20257;-74
2022/07/01 10:48:54;;;;;;;7.55;6.78;;;47.00;42.60;;;;;;5002385;28;20233;-75
2022/07/01 10:51:47;;;;;;;10.73;5.75;;;46.60;42.30;;;;;;5003426;28;20230;-75
2022/07/01 10:54:49;;;;;;;8.45;5.90;;;47.90;42.20;;;;;;4987993;28;20258;-75
2022/07/01 10:57:39;;;;;;;5.85;5.35;;;48.40;42.10;;;;;;5001377;28;20233;-75
2022/07/01 11:00:34;;;;;;;7.85;5.90;;;47.60;41.80;;;;;;5001850;28;20217;-75
2022/07/01 11:03:24;;;;;;;5.65;5.15;;;49.00;41.00;;;;;;4998851;28;20264;-75
2022/07/01 11:06:13;;;;;;;5.43;4.90;;;48.70;39.00;;;;;;4983571;28;20221;-75
2022/07/01 11:09:01;;;;;;;19.15;5.30;;;47.70;39.90;;;;;;4996916;28;20218;-75
2022/07/01 11:11:51;;;;;;;7.03;5.82;;;46.70;41.80;;;;;;4998821;28;20218;-76
2022/07/01 11:14:41;;;;;;;7.30;5.47;;;47.60;40.80;;;;;;4997138;28;20229;-74
2022/07/01 11:17:31;;;;;;;9.65;5.32;;;48.40;41.20;;;;;;4980820;28;20221;-80
2022/07/01 11:20:23;;;;;;;7.60;5.70;;;48.00;39.20;;;;;;4999761;28;20238;-74
2022/07/01 11:23:16;;;;;;;7.40;5.85;;;47.80;38.90;;;;;;5000033;28;20214;-73
2022/07/01 11:26:04;;;;;;;7.32;5.50;;;47.80;39.10;;;;;;4992403;28;20582;-74
2022/07/01 11:28:53;;;;;;;9.43;5.65;;;46.80;39.70;;;;;;4999841;28;20266;-73
2022/07/01 11:31:42;;;;;;;7.45;5.28;;;47.70;39.60;;;;;;4989754;28;20225;-73
2022/07/01 11:34:31;;;;;;;7.35;5.22;;;46.90;39.10;;;;;;4997703;28;20288;-73
2022/07/01 11:40:24;;;;;;;6.13;5.20;;;46.90;39.00;;;;;;4969919;28;20239;-74
2022/07/01 11:43:20;;;;;;;6.80;4.85;;;47.20;38.80;;;;;;5001182;28;20229;-76
2022/07/01 11:46:10;;;;;;;13.88;5.68;;;48.40;38.60;;;;;;4998652;28;20237;-79
2022/07/01 11:48:58;;;;;;;6.10;5.50;;;48.20;38.40;;;;;;4989759;28;20248;-76
2022/07/01 11:51:55;;;;;;;7.10;4.97;;;48.50;39.20;;;;;;4990991;28;20716;-75
2022/07/01 11:54:47;;;;;;;6.65;4.82;;;49.10;38.90;;;;;;4996695;28;20866;-75
2022/07/01 11:57:36;;;;;;;7.63;5.68;;;49.00;38.50;;;;;;4999163;28;20245;-76
2022/07/01 12:00:34;;;;;;;5.45;4.95;;;48.50;37.90;;;;;;5000166;28;20747;-74
2022/07/01 12:03:32;;;;;;;6.10;5.07;;;47.90;39.40;;;;;;5001496;28;20230;-74
2022/07/01 12:06:23;;;;;;;5.47;4.88;;;47.70;39.20;;;;;;4998777;28;20226;-73
2022/07/01 12:09:15;;;;;;;9.65;5.80;;;47.90;39.00;;;;;;4999367;28;20234;-74
2022/07/01 12:12:06;;;;;;;7.05;4.97;;;47.60;38.30;;;;;;5007240;28;20235;-75
2022/07/01 12:14:56;;;;;;;6.80;5.20;;;47.30;39.70;;;;;;4998559;28;20672;-75
2022/07/01 12:17:45;;;;;;;5.93;5.32;;;47.70;38.40;;;;;;4998520;28;20228;-75
2022/07/01 12:20:33;;;;;;;9.93;5.18;;;48.40;38.10;;;;;;4985152;28;20314;-73
2022/07/01 12:23:22;;;;;;;5.82;4.80;;;47.70;37.40;;;;;;5000854;28;20850;-69
2022/07/01 12:26:10;;;;;;;9.25;4.75;;;46.70;37.50;;;;;;4996145;28;20520;-72
2022/07/01 12:29:00;;;;;;;8.20;4.63;;;47.10;39.40;;;;;;4992266;28;20320;-71
2022/07/01 12:31:57;;;;;;;6.57;5.05;;;46.70;38.00;;;;;;4979726;28;20237;-72
2022/07/01 12:34:47;;;;;;;5.13;4.63;;;46.30;38.50;;;;;;4998013;28;20229;-71
2022/07/01 12:37:37;;;;;;;8.88;4.90;;;46.20;39.10;;;;;;4996806;28;20309;-77
2022/07/01 12:40:28;;;;;;;6.90;4.90;;;46.30;38.90;;;;;;4998779;28;20230;-75
2022/07/01 12:43:24;;;;;;;7.72;4.85;;;46.90;39.00;;;;;;4999250;28;20226;-73
2022/07/01 12:46:28;;;;;;;8.48;5.18;;;46.90;37.70;;;;;;4996760;28;20751;-70
2022/07/01 12:49:21;;;;;;;6.47;4.85;;;46.70;38.80;;;;;;5004627;28;20320;-74
2022/07/01 12:52:27;;;;;;;5.57;4.72;;;46.20;38.00;;;;;;5006089;28;20218;-73
2022/07/01 12:55:17;;;;;;;5.30;4.47;;;45.70;38.80;;;;;;5004747;28;20899;-75
2022/07/01 12:58:07;;;;;;;7.93;4.63;;;44.10;40.10;;;;;;5005645;28;20396;-72
2022/07/01 13:00:58;;;;;;;5.47;4.70;;;42.70;42.60;;;;;;4989561;28;20668;-72
2022/07/01 13:03:48;;;;;;;8.60;4.85;;;40.90;43.80;;;;;;5002649;28;20300;-73
2022/07/01 13:06:37;;;;;;;6.47;5.47;;;40.10;46.40;;;;;;5001021;28;20218;-75
2022/07/01 13:09:26;;;;;;;9.20;5.90;;;39.50;47.70;;;;;;4992975;28;20756;-73
2022/07/01 13:12:14;;;;;;;7.40;5.72;;;39.00;47.80;;;;;;5004790;28;20636;-74
2022/07/01 13:15:03;;;;;;;7.72;5.65;;;38.80;49.30;;;;;;4998118;28;20260;-66
2022/07/01 13:17:53;;;;;;;6.45;5.72;;;38.50;48.60;;;;;;4984085;28;20222;-68
2022/07/01 13:20:43;;;;;;;7.43;6.00;;;37.90;48.20;;;;;;4999023;28;20566;-69
2022/07/01 13:23:32;;;;;;;9.65;6.72;;;37.60;49.10;;;;;;5004613;28;20603;-67
2022/07/01 13:26:22;;;;;;;10.45;6.28;;;37.40;50.00;;;;;;4986638;28;20407;-68
2022/07/01 13:29:11;;;;;;;9.43;6.13;;;37.30;50.50;;;;;;5000181;28;20222;-70
2022/07/01 13:32:00;;;;;;;9.70;6.70;;;37.00;51.10;;;;;;4996690;28;20333;-71
2022/07/01 13:34:49;;;;;;;10.75;6.68;;;37.00;51.30;;;;;;4983634;28;20225;-69
2022/07/01 13:37:39;;;;;;;9.35;6.05;;;36.90;51.10;;;;;;4995758;28;20229;-72
2022/07/01 13:40:28;;;;;;;8.15;6.43;;;36.80;50.40;;;;;;4998204;28;20229;-73
2022/07/01 13:43:17;;;;;;;14.38;6.63;;;36.60;51.50;;;;;;4997120;28;20229;-69
2022/07/01 13:46:06;;;;;;;10.88;6.40;;;36.40;51.50;;;;;;4998259;28;20309;-68
2022/07/01 13:48:55;;;;;;;9.15;6.20;;;36.30;53.00;;;;;;4997590;28;20226;-68
2022/07/01 13:51:44;;;;;;;7.57;6.30;;;36.20;52.10;;;;;;4999189;28;20221;-69
2022/07/01 13:54:34;;;;;;;7.45;6.18;;;36.30;52.90;;;;;;4983163;28;20222;-68
2022/07/01 13:57:23;;;;;;;11.05;6.15;;;36.20;54.60;;;;;;5000771;28;20225;-68
2022/07/01 14:00:12;;;;;;;8.27;6.38;;;36.20;53.20;;;;;;5000870;28;20218;-69
2022/07/01 14:03:01;;;;;;;13.60;6.93;;;36.00;53.40;;;;;;4998078;28;20245;-71
2022/07/01 14:05:49;;;;;;;9.48;6.57;;;36.00;53.60;;;;;;4996274;28;20379;-70
2022/07/01 14:08:38;;;;;;;6.97;6.30;;;35.90;54.50;;;;;;5000933;28;20229;-68
2022/07/01 14:11:28;;;;;;;8.32;6.70;;;35.80;53.50;;;;;;4997416;28;20601;-71
2022/07/01 14:14:17;;;;;;;8.07;6.65;;;35.60;53.40;;;;;;4998925;28;20221;-68
2022/07/01 14:17:06;;;;;;;7.85;5.97;;;35.60;53.80;;;;;;4994831;28;20361;-76
2022/07/01 14:19:56;;;;;;;6.95;6.25;;;35.70;54.00;;;;;;5001091;28;20218;-72
2022/07/01 14:22:45;;;;;;;11.73;6.20;;;35.50;54.80;;;;;;4997237;28;21099;-84
2022/07/01 14:25:33;;;;;;;9.23;6.25;;;35.40;55.00;;;;;;4996351;28;20217;-69
2022/07/01 14:28:24;;;;;;;11.18;6.78;;;35.30;54.90;;;;;;5002075;28;20230;-72
2022/07/01 14:31:12;;;;;;;7.38;6.68;;;35.20;54.90;;;;;;5000894;28;20237;-74
2022/07/01 14:34:01;;;;;;;10.95;7.57;;;35.10;54.90;;;;;;4998099;28;20231;-69
2022/07/01 14:36:49;;;;;;;12.43;6.70;;;35.10;55.00;;;;;;5005933;28;20398;-74
2022/07/01 14:39:38;;;;;;;10.02;6.97;;;35.10;56.00;;;;;;4995103;28;20226;-73
2022/07/01 14:42:27;;;;;;;9.70;6.60;;;35.20;56.40;;;;;;4995235;28;20603;-74
2022/07/01 14:45:21;;;;;;;10.80;6.63;;;35.10;56.40;;;;;;4984134;28;20245;-74
2022/07/01 14:48:09;;;;;;;7.88;6.55;;;34.90;56.10;;;;;;5004585;28;20353;-73
2022/07/01 14:50:58;;;;;;;8.63;6.80;;;34.80;56.00;;;;;;5011069;28;20240;-73